Observations for STANSTED AIRPORT, United Kingdom (EGSS)

EGSS 201650Z AUTO 28009KT 250V320 9999 SCT036 SCT042 24/15 Q1018
EGSS 201620Z 25010KT 220V290 9999 SCT025 BKN035 24/16 Q1018 
EGSS 201550Z 26010KT 220V290 9999 SCT030 BKN045 24/16 Q1018 
EGSS 201520Z AUTO 26010KT 230V300 9999 BKN030 24/16 Q1018   
EGSS 201450Z AUTO 26012KT 9999 -RA BKN030 BKN045 23/16 Q1019
EGSS 201420Z AUTO 25011KT 9999 BKN030 BKN038 23/16 Q1019
EGSS 201350Z AUTO 25012KT 220V290 9999 BKN031 24/16 Q1019   
EGSS 201320Z AUTO 23013KT 9999 BKN028 BKN034 25/16 Q1019
EGSS 201250Z AUTO 24012KT 9999 BKN025 23/16 Q1019   
EGSS 201220Z AUTO 23014G24KT 210V270 9999 BKN023 23/16 Q1019
EGSS 201150Z AUTO 23014KT 9999 BKN021 22/16 Q1019   
EGSS 201120Z AUTO 23015KT 9999 BKN019 21/15 Q1020   
EGSS 201050Z AUTO 24012KT 9999 BKN015 20/15 Q1020   
EGSS 201020Z AUTO 22013KT 9999 BKN014 20/15 Q1020   
EGSS 200950Z AUTO 23013KT 9999 OVC011 19/15 Q1020   
EGSS 200920Z AUTO 23013KT 9999 OVC009 18/15 Q1020   
EGSS 200850Z AUTO 22015KT 9999 OVC008 17/15 Q1020   
EGSS 200820Z AUTO 22013KT 9999 OVC007 17/15 Q1020   
EGSS 200750Z AUTO 23011KT 9999 OVC005 16/15 Q1020   
EGSS 200720Z AUTO 24011KT 7000 OVC003 16/15 Q1021   
EGSS 200650Z 23011KT 2500 BR OVC003 15/15 Q1021 
EGSS 200620Z 23010KT 1100 R22/1400 BR OVC002 15/15 Q1021
EGSS 200550Z AUTO 22012KT 2000 BR OVC002 15/15 Q1020
EGSS 200520Z AUTO 22013KT 6000 OVC003 16/15 Q1020   
EGSS 200450Z AUTO 22009KT 5000 BR OVC003 16/15 Q1020
EGSS 200420Z 20008KT 4500 BR OVC003 16/15 Q1020 
EGSS 200350Z AUTO 20007KT 8000 SCT005 BKN008 15/15 Q1020
EGSS 200320Z AUTO 22007KT 9000 BKN006 15/15 Q1020   
EGSS 200250Z 22006KT 9000 SCT009 15/14 Q1021
EGSS 200220Z AUTO 22007KT 9000 SCT011 14/14 Q1021   
EGSS 200150Z AUTO 23005KT 9999 NCD 14/14 Q1021  
EGSS 200120Z AUTO 21005KT 9999 NCD 14/14 Q1021  
EGSS 200050Z AUTO 21006KT 9999 NCD 15/14 Q1021  
EGSS 200020Z AUTO 20006KT 9999 NCD 16/15 Q1021  
EGSS 192350Z AUTO 21005KT 9999 FEW031 16/15 Q1022   
EGSS 192320Z AUTO 21006KT 9999 BKN031 17/16 Q1022   
EGSS 192250Z AUTO 22007KT 9999 BKN028 18/16 Q1022   
EGSS 192220Z AUTO 22007KT 9999 BKN030 18/16 Q1022   
EGSS 192150Z AUTO 22008KT 9999 NCD 18/16 Q1022  
EGSS 192120Z AUTO 23007KT 9999 BKN022 BKN039 20/16 Q1022
EGSS 192050Z AUTO 24006KT 9999 BKN026 20/16 Q1022   
EGSS 192020Z AUTO 24008KT 9999 BKN027 BKN034 OVC048 21/16 Q1022 
EGSS 191950Z AUTO 25008KT 210V270 9999 BKN031 OVC044 22/16 Q1021
EGSS 191920Z AUTO 24008KT 9999 BKN033 22/16 Q1022   
EGSS 191850Z AUTO 25008KT 220V290 9999 SCT032 BKN044 23/16 Q1022
EGSS 191820Z AUTO 24009KT 210V270 9999 OVC034 23/16 Q1022   
EGSS 191750Z AUTO 24010KT 9999 BKN034 23/16 Q1022   
EGSS 191720Z AUTO 27009KT 9999 SCT033 BKN040 24/16 Q1022
EGSS 191650Z AUTO 23012KT 9999 BKN033 BKN043 24/16 Q1022
EGSS 191620Z AUTO 25011KT 9999 SCT032 BKN049 23/16 Q1022